Time;durP1;ratioP1;P1;durP2;ratioP2;P2;SDS_P1;SDS_P2;PMS_P1;PMS_P2;Temp;Humidity;BMP_temperature;BMP_pressure;BME280_temperature;BME280_humidity;BME280_pressure;Samples;Min_cycle;Max_cycle;Signal;HPM_P1;HPM_P2
2022/03/04 00:02:07;;;;;;;24.40;12.10;;;1.90;64.10;;;;;;4973332;28;20230;-74
2022/03/04 00:04:37;;;;;;;23.17;11.17;;;1.90;63.90;;;;;;4973948;28;20189;-74
2022/03/04 00:07:04;;;;;;;19.90;11.68;;;1.90;64.40;;;;;;4973449;28;20493;-75
2022/03/04 00:09:30;;;;;;;28.33;13.00;;;1.80;64.80;;;;;;4973758;28;20203;-77
2022/03/04 00:11:57;;;;;;;24.63;13.03;;;1.80;65.10;;;;;;4973601;28;20211;-73
2022/03/04 00:14:24;;;;;;;24.77;12.00;;;1.60;65.40;;;;;;4972540;28;20419;-75
2022/03/04 00:16:51;;;;;;;27.45;13.02;;;1.60;65.70;;;;;;4968023;28;20839;-75
2022/03/04 00:19:17;;;;;;;28.08;13.13;;;1.60;66.00;;;;;;4973635;28;20233;-73
2022/03/04 00:21:49;;;;;;;23.83;11.55;;;1.60;66.00;;;;;;4972321;28;20183;-76
2022/03/04 00:24:16;;;;;;;22.45;11.93;;;1.50;66.00;;;;;;4974239;28;20187;-76
2022/03/04 00:26:41;;;;;;;27.10;13.00;;;1.60;66.00;;;;;;4973223;28;20271;-73
2022/03/04 00:29:08;;;;;;;27.13;12.57;;;1.60;66.10;;;;;;4972205;28;20641;-74
2022/03/04 00:31:35;;;;;;;28.23;13.20;;;1.50;66.10;;;;;;4971887;28;20677;-75
2022/03/04 00:34:02;;;;;;;23.90;11.33;;;1.50;66.30;;;;;;4978011;28;20617;-76
2022/03/04 00:36:28;;;;;;;25.00;13.15;;;1.50;66.60;;;;;;4974628;28;20418;-74
2022/03/04 00:38:56;;;;;;;21.30;11.10;;;1.50;66.70;;;;;;4983300;28;20199;-75
2022/03/04 00:41:23;;;;;;;28.67;12.65;;;1.40;67.20;;;;;;4972337;28;20558;-74
2022/03/04 00:43:51;;;;;;;22.20;12.38;;;1.40;67.30;;;;;;4972371;28;20195;-74
2022/03/04 00:46:19;;;;;;;29.95;13.70;;;1.40;67.20;;;;;;4964815;28;20186;-74
2022/03/04 00:48:45;;;;;;;30.45;12.57;;;1.30;67.20;;;;;;4972154;28;20738;-74
2022/03/04 00:51:12;;;;;;;27.95;12.05;;;1.20;67.20;;;;;;4972413;28;20203;-75
2022/03/04 00:53:38;;;;;;;24.50;11.85;;;1.30;67.00;;;;;;4961355;28;20771;-76
2022/03/04 00:56:06;;;;;;;23.67;11.82;;;1.30;67.00;;;;;;4968758;28;20560;-76
2022/03/04 00:58:33;;;;;;;22.15;11.30;;;1.20;67.20;;;;;;4972119;28;20223;-76
2022/03/04 01:00:59;;;;;;;24.80;12.55;;;1.20;67.30;;;;;;4971963;28;20214;-75
2022/03/04 01:03:24;;;;;;;23.13;12.53;;;1.10;67.30;;;;;;4966803;28;20646;-75
2022/03/04 01:05:50;;;;;;;21.90;12.50;;;1.10;67.20;;;;;;4972596;28;20207;-77
2022/03/04 01:08:16;;;;;;;26.13;12.00;;;1.00;67.20;;;;;;4976388;28;20202;-74
2022/03/04 01:10:42;;;;;;;25.87;12.20;;;1.00;67.20;;;;;;4975956;28;20245;-75
2022/03/04 01:13:07;;;;;;;25.13;13.10;;;1.00;67.00;;;;;;4970945;28;20203;-75
2022/03/04 01:15:33;;;;;;;26.43;12.30;;;1.00;67.30;;;;;;4972432;28;20270;-77
2022/03/04 01:17:59;;;;;;;25.27;13.00;;;1.00;67.30;;;;;;4970500;28;20207;-75
2022/03/04 01:20:25;;;;;;;26.20;12.03;;;1.00;67.70;;;;;;4970805;28;20793;-76
2022/03/04 01:22:50;;;;;;;27.40;12.50;;;0.90;68.30;;;;;;4972429;28;20667;-78
2022/03/04 01:25:16;;;;;;;29.27;12.23;;;0.90;69.20;;;;;;4973586;28;20188;-75
2022/03/04 01:27:42;;;;;;;32.60;13.17;;;1.00;69.90;;;;;;4966730;28;20210;-72
2022/03/04 01:30:10;;;;;;;26.87;12.43;;;0.90;70.10;;;;;;4983419;28;20548;-77
2022/03/04 01:32:36;;;;;;;25.67;13.35;;;0.80;70.20;;;;;;4979161;28;20270;-76
2022/03/04 01:35:03;;;;;;;26.33;13.13;;;0.80;70.10;;;;;;4980322;28;20262;-77
2022/03/04 01:37:29;;;;;;;27.55;12.73;;;0.80;70.10;;;;;;4975692;28;20179;-75
2022/03/04 01:39:55;;;;;;;21.37;11.03;;;0.80;70.10;;;;;;4993749;28;20178;-76
2022/03/04 01:42:20;;;;;;;31.33;12.40;;;0.80;69.90;;;;;;4975044;28;20866;-75
2022/03/04 01:44:46;;;;;;;27.90;12.90;;;0.80;69.90;;;;;;4974236;28;20183;-76
2022/03/04 01:47:12;;;;;;;24.93;12.87;;;0.70;69.90;;;;;;4967757;28;20422;-76
2022/03/04 01:49:40;;;;;;;21.83;12.23;;;0.60;70.40;;;;;;4973144;28;20464;-75
2022/03/04 01:52:06;;;;;;;27.65;13.23;;;0.70;70.40;;;;;;4988167;28;20274;-75
2022/03/04 01:54:32;;;;;;;25.27;12.23;;;0.60;70.40;;;;;;4977627;28;20223;-76
2022/03/04 01:56:58;;;;;;;24.17;12.23;;;0.60;70.40;;;;;;4974023;28;20210;-75
2022/03/04 01:59:24;;;;;;;26.47;12.20;;;0.60;70.10;;;;;;4988490;28;20525;-74
2022/03/04 02:01:52;;;;;;;25.17;12.47;;;0.60;70.10;;;;;;4974741;28;20841;-76
2022/03/04 02:04:22;;;;;;;24.38;11.68;;;0.60;69.90;;;;;;4973601;28;20431;-75
2022/03/04 02:06:48;;;;;;;22.00;11.30;;;0.60;69.80;;;;;;4966954;28;20187;-75
2022/03/04 02:09:14;;;;;;;23.77;11.57;;;0.60;69.80;;;;;;4966392;28;20249;-75
2022/03/04 02:11:43;;;;;;;24.23;12.20;;;0.60;69.90;;;;;;4969080;28;20235;-76
2022/03/04 02:14:09;;;;;;;26.50;12.55;;;0.60;69.90;;;;;;4959513;28;20188;-75
2022/03/04 02:16:46;;;;;;;29.95;12.73;;;0.60;70.10;;;;;;4967640;28;20180;-76
2022/03/04 02:19:12;;;;;;;27.95;11.88;;;0.60;70.10;;;;;;4958891;28;20297;-76
2022/03/04 02:21:52;;;;;;;28.47;13.53;;;0.60;69.70;;;;;;4970062;28;20258;-76
2022/03/04 02:24:19;;;;;;;26.90;12.80;;;0.50;69.70;;;;;;4972637;28;20426;-75
2022/03/04 02:26:45;;;;;;;27.52;12.95;;;0.40;70.10;;;;;;4966691;28;20194;-75
2022/03/04 02:29:12;;;;;;;28.52;12.05;;;0.40;70.40;;;;;;4968686;28;20306;-75
2022/03/04 02:31:38;;;;;;;28.67;12.88;;;0.40;70.40;;;;;;4967729;28;20250;-75
2022/03/04 02:34:04;;;;;;;27.07;12.43;;;0.40;70.50;;;;;;4967263;28;20207;-75
2022/03/04 02:36:29;;;;;;;29.23;13.23;;;0.40;70.50;;;;;;4968194;28;20414;-75
2022/03/04 02:38:55;;;;;;;28.53;12.77;;;0.40;70.70;;;;;;4972459;28;20970;-75
2022/03/04 02:41:21;;;;;;;29.10;12.73;;;0.40;70.80;;;;;;4970608;28;20431;-76
2022/03/04 02:43:47;;;;;;;25.60;12.50;;;0.40;71.00;;;;;;4965695;28;20199;-76
2022/03/04 02:46:15;;;;;;;27.80;13.60;;;0.30;71.00;;;;;;4972848;28;20218;-77
2022/03/04 02:48:41;;;;;;;30.52;12.57;;;0.30;71.40;;;;;;4970597;28;20214;-76
2022/03/04 02:51:07;;;;;;;30.93;13.27;;;0.30;71.70;;;;;;4968115;28;20203;-76
2022/03/04 02:53:33;;;;;;;27.27;13.27;;;0.20;71.70;;;;;;4970673;28;21564;-76
2022/03/04 02:55:59;;;;;;;26.50;13.30;;;0.20;72.30;;;;;;4966071;28;20195;-74
2022/03/04 02:58:25;;;;;;;23.80;11.93;;;0.20;72.90;;;;;;4970964;28;20828;-77
2022/03/04 03:00:51;;;;;;;25.35;12.63;;;0.20;73.50;;;;;;4974387;28;20213;-76
2022/03/04 03:03:17;;;;;;;27.10;12.90;;;0.20;73.60;;;;;;4974673;28;20646;-74
2022/03/04 03:05:43;;;;;;;28.47;12.10;;;0.10;73.70;;;;;;4975179;28;20194;-75
2022/03/04 03:08:09;;;;;;;30.93;12.67;;;0.10;74.00;;;;;;4976052;28;20489;-76
2022/03/04 03:10:34;;;;;;;34.23;13.30;;;0.10;74.20;;;;;;4983111;28;20536;-77
2022/03/04 03:13:01;;;;;;;33.73;13.17;;;0.00;74.30;;;;;;4972980;28;20187;-76
2022/03/04 03:15:27;;;;;;;25.25;12.73;;;0.00;74.20;;;;;;4975060;28;20423;-77
2022/03/04 03:17:53;;;;;;;28.90;12.88;;;0.00;74.20;;;;;;4976591;28;20203;-76
2022/03/04 03:20:19;;;;;;;27.02;13.75;;;0.00;73.90;;;;;;4976666;28;20188;-75
2022/03/04 03:22:45;;;;;;;25.60;12.20;;;0.00;73.90;;;;;;4976141;28;20186;-76
2022/03/04 03:25:12;;;;;;;30.03;14.07;;;-0.10;73.90;;;;;;4980395;28;20457;-76
2022/03/04 03:27:38;;;;;;;29.60;13.50;;;0.00;73.70;;;;;;4978231;28;20190;-76
2022/03/04 03:30:05;;;;;;;30.73;14.10;;;0.00;73.60;;;;;;4975803;28;20187;-76
2022/03/04 03:32:31;;;;;;;27.58;13.13;;;0.00;73.60;;;;;;4975996;28;20558;-77
2022/03/04 03:34:57;;;;;;;30.87;13.93;;;0.00;73.30;;;;;;4974141;28;20179;-76
2022/03/04 03:37:23;;;;;;;27.77;13.33;;;0.00;73.30;;;;;;4975109;28;20419;-77
2022/03/04 03:39:48;;;;;;;25.70;12.83;;;0.00;73.30;;;;;;4983108;28;20189;-76
2022/03/04 03:42:14;;;;;;;30.60;14.10;;;0.00;73.20;;;;;;4981491;28;20527;-76
2022/03/04 03:44:40;;;;;;;27.60;13.90;;;0.00;73.30;;;;;;4976761;28;20198;-76
2022/03/04 03:47:06;;;;;;;31.63;15.40;;;0.00;73.60;;;;;;4975120;28;20190;-75
2022/03/04 03:49:32;;;;;;;31.87;14.67;;;0.00;73.30;;;;;;4972674;28;20706;-75
2022/03/04 03:51:57;;;;;;;32.63;16.40;;;-0.10;73.60;;;;;;4974156;28;20972;-76
2022/03/04 03:54:23;;;;;;;38.53;17.17;;;-0.10;73.60;;;;;;4976578;28;20266;-76
2022/03/04 03:56:49;;;;;;;30.80;16.47;;;-0.10;73.30;;;;;;4977161;28;20195;-76
2022/03/04 03:59:15;;;;;;;35.40;15.70;;;-0.20;73.60;;;;;;4976324;28;20478;-75
2022/03/04 04:01:41;;;;;;;32.40;16.37;;;-0.20;73.50;;;;;;4973714;28;20197;-76
2022/03/04 04:04:12;;;;;;;35.30;15.10;;;-0.20;73.30;;;;;;4967456;28;20439;-77
2022/03/04 04:06:40;;;;;;;35.90;15.15;;;-0.20;73.30;;;;;;4973508;28;20563;-76
2022/03/04 04:09:08;;;;;;;33.35;15.13;;;-0.20;73.30;;;;;;4968967;28;20635;-75
2022/03/04 04:11:38;;;;;;;33.83;15.88;;;-0.20;73.50;;;;;;4971261;28;20199;-76
2022/03/04 04:14:08;;;;;;;42.88;15.95;;;-0.20;73.30;;;;;;4973730;28;20230;-76
2022/03/04 04:16:34;;;;;;;32.05;16.27;;;-0.30;73.30;;;;;;4973663;28;20255;-75
2022/03/04 04:19:01;;;;;;;34.03;16.17;;;-0.30;73.30;;;;;;4973172;28;20261;-78
2022/03/04 04:21:27;;;;;;;35.42;16.33;;;-0.30;73.50;;;;;;4974492;28;20187;-75
2022/03/04 04:23:54;;;;;;;36.40;16.17;;;-0.30;73.50;;;;;;4972386;28;20598;-75
2022/03/04 04:26:21;;;;;;;34.97;16.65;;;-0.30;73.60;;;;;;4973704;28;20606;-76
2022/03/04 04:28:47;;;;;;;33.65;17.08;;;-0.30;73.70;;;;;;4976709;28;20199;-75
2022/03/04 04:31:13;;;;;;;32.53;13.35;;;-0.30;73.70;;;;;;4977138;28;20290;-76
2022/03/04 04:33:39;;;;;;;31.77;13.80;;;-0.30;73.90;;;;;;4978144;28;20195;-76
2022/03/04 04:36:05;;;;;;;27.30;13.27;;;-0.40;73.70;;;;;;4978407;28;20632;-71
2022/03/04 04:38:32;;;;;;;29.10;15.38;;;-0.40;74.20;;;;;;4975353;28;20435;-75
2022/03/04 04:40:58;;;;;;;27.02;14.65;;;-0.40;74.20;;;;;;4972931;28;20187;-74
2022/03/04 04:43:24;;;;;;;27.65;14.20;;;-0.40;74.50;;;;;;4971802;28;20242;-76
2022/03/04 04:45:51;;;;;;;31.27;14.17;;;-0.40;74.80;;;;;;4969860;28;20199;-75
2022/03/04 04:48:17;;;;;;;26.80;14.25;;;-0.50;75.10;;;;;;4977416;28;20247;-75
2022/03/04 04:50:43;;;;;;;38.53;14.27;;;-0.60;75.20;;;;;;4966249;28;20199;-77
2022/03/04 04:53:09;;;;;;;33.50;14.00;;;-0.60;75.40;;;;;;4974582;28;20229;-76
2022/03/04 04:55:34;;;;;;;28.63;13.53;;;-0.60;75.50;;;;;;4968073;28;20820;-75
2022/03/04 04:58:00;;;;;;;29.00;15.47;;;-0.60;75.50;;;;;;4977069;28;20219;-77
2022/03/04 05:00:26;;;;;;;31.70;15.20;;;-0.60;75.50;;;;;;4972037;28;20186;-76
2022/03/04 05:02:52;;;;;;;30.67;14.57;;;-0.60;75.80;;;;;;4973969;28;20281;-76
2022/03/04 05:05:19;;;;;;;28.13;13.50;;;-0.60;75.80;;;;;;4966639;28;20427;-75
2022/03/04 05:07:46;;;;;;;30.77;13.63;;;-0.60;75.80;;;;;;4973411;28;20205;-75
2022/03/04 05:10:12;;;;;;;31.88;14.30;;;-0.60;76.10;;;;;;4968963;28;20278;-77
2022/03/04 05:12:38;;;;;;;29.65;13.90;;;-0.60;76.10;;;;;;4971648;28;20187;-75
2022/03/04 05:15:05;;;;;;;25.63;14.38;;;-0.60;75.90;;;;;;4971813;28;20242;-76
2022/03/04 05:17:31;;;;;;;25.40;14.23;;;-0.60;75.90;;;;;;4983063;28;20186;-77
2022/03/04 05:19:56;;;;;;;31.30;14.00;;;-0.70;75.90;;;;;;4980596;28;20184;-76
2022/03/04 05:22:22;;;;;;;31.33;15.87;;;-0.70;75.90;;;;;;4970801;28;20227;-77
2022/03/04 05:24:48;;;;;;;34.70;15.37;;;-0.70;75.80;;;;;;4968681;28;20184;-76
2022/03/04 05:27:14;;;;;;;32.33;15.23;;;-0.60;75.70;;;;;;4966974;28;20180;-76
2022/03/04 05:29:39;;;;;;;29.10;14.10;;;-0.70;75.70;;;;;;4975466;28;20287;-76
2022/03/04 05:32:05;;;;;;;37.60;14.70;;;-0.60;76.10;;;;;;4978859;28;20207;-76
2022/03/04 05:34:31;;;;;;;28.05;13.57;;;-0.60;76.10;;;;;;4974128;28;20654;-76
2022/03/04 05:36:57;;;;;;;30.70;14.80;;;-0.60;76.10;;;;;;4981619;28;20202;-76
2022/03/04 05:39:23;;;;;;;32.73;15.30;;;-0.70;76.10;;;;;;4966141;28;20270;-76
2022/03/04 05:41:48;;;;;;;38.13;16.33;;;-0.70;76.20;;;;;;4972468;28;20191;-76
2022/03/04 05:44:14;;;;;;;32.50;15.30;;;-0.70;76.40;;;;;;4971374;28;20191;-74
2022/03/04 05:46:40;;;;;;;35.90;16.30;;;-0.80;76.50;;;;;;4976725;28;20194;-73
2022/03/04 05:49:05;;;;;;;35.03;15.63;;;-0.70;77.00;;;;;;4964057;28;20203;-76
2022/03/04 05:51:32;;;;;;;32.40;14.37;;;-0.70;77.00;;;;;;4968442;28;20275;-77
2022/03/04 05:53:58;;;;;;;29.08;14.85;;;-0.60;77.00;;;;;;4968909;28;20666;-75
2022/03/04 05:56:24;;;;;;;34.47;15.03;;;-0.60;76.80;;;;;;4974414;28;20183;-76
2022/03/04 05:58:50;;;;;;;29.63;14.43;;;-0.60;76.80;;;;;;4970075;28;20964;-75
2022/03/04 06:01:16;;;;;;;32.30;14.98;;;-0.70;76.80;;;;;;4968138;28;20477;-76
2022/03/04 06:03:43;;;;;;;28.10;15.20;;;-0.80;77.00;;;;;;4973529;28;20187;-75
2022/03/04 06:06:12;;;;;;;33.28;15.80;;;-0.70;77.30;;;;;;4974887;28;20481;-76
2022/03/04 06:08:38;;;;;;;31.10;15.05;;;-0.70;77.30;;;;;;4970580;28;20207;-77
2022/03/04 06:11:08;;;;;;;37.35;15.20;;;-0.70;77.30;;;;;;4975307;28;20682;-76
2022/03/04 06:13:34;;;;;;;37.38;15.18;;;-0.70;77.10;;;;;;4969749;28;20243;-77
2022/03/04 06:16:00;;;;;;;34.90;16.10;;;-0.60;77.00;;;;;;4972572;28;20179;-75
2022/03/04 06:18:26;;;;;;;30.37;15.30;;;-0.60;76.80;;;;;;4968852;28;20202;-77
2022/03/04 06:20:52;;;;;;;34.90;14.40;;;-0.70;76.80;;;;;;4974373;28;20952;-77
2022/03/04 06:23:18;;;;;;;34.03;15.07;;;-0.70;77.10;;;;;;4964776;28;20422;-75
2022/03/04 06:25:44;;;;;;;33.63;14.70;;;-0.70;77.00;;;;;;4969439;28;20183;-77
2022/03/04 06:28:09;;;;;;;31.53;15.80;;;-0.70;76.80;;;;;;4966278;28;20295;-77
2022/03/04 06:30:36;;;;;;;28.73;14.30;;;-0.70;77.00;;;;;;4974203;28;20207;-76
2022/03/04 06:35:48;;;;;;;29.40;14.73;;;-0.60;77.00;;;;;;4972719;28;20196;-76
2022/03/04 06:38:16;;;;;;;29.55;15.27;;;-0.60;77.80;;;;;;4969383;28;20207;-76
2022/03/04 06:40:42;;;;;;;31.00;16.63;;;-0.60;78.40;;;;;;4973895;28;20274;-76
2022/03/04 06:43:08;;;;;;;29.80;16.00;;;-0.60;78.60;;;;;;4973462;28;20275;-75
2022/03/04 06:45:34;;;;;;;34.20;15.95;;;-0.60;78.90;;;;;;4977520;28;20425;-78
2022/03/04 06:48:00;;;;;;;31.10;16.50;;;-0.50;78.70;;;;;;4984635;28;20604;-75
2022/03/04 06:50:26;;;;;;;33.65;15.27;;;-0.50;78.70;;;;;;4978726;28;20498;-75
2022/03/04 06:52:53;;;;;;;29.73;15.63;;;-0.50;79.00;;;;;;4975640;28;20203;-75
2022/03/04 06:55:19;;;;;;;32.97;15.40;;;-0.50;79.00;;;;;;4976047;28;20418;-76
2022/03/04 06:57:46;;;;;;;39.07;18.00;;;-0.50;79.20;;;;;;4970436;28;20295;-75
2022/03/04 07:00:13;;;;;;;37.42;17.08;;;-0.50;79.30;;;;;;4972790;28;20474;-76
2022/03/04 07:02:39;;;;;;;29.80;14.93;;;-0.50;79.50;;;;;;4980715;28;20174;-75
2022/03/04 07:05:06;;;;;;;31.08;15.90;;;-0.40;79.20;;;;;;4985350;28;20187;-75
2022/03/04 07:07:32;;;;;;;28.60;14.48;;;-0.30;78.60;;;;;;4973980;28;20673;-75
2022/03/04 07:09:58;;;;;;;32.75;14.95;;;-0.30;78.60;;;;;;4976025;28;20187;-74
2022/03/04 07:12:24;;;;;;;33.47;14.88;;;-0.30;78.60;;;;;;4984098;28;20592;-75
2022/03/04 07:14:51;;;;;;;34.23;16.47;;;-0.30;78.40;;;;;;4997886;28;20269;-74
2022/03/04 07:17:18;;;;;;;29.25;15.93;;;-0.30;78.70;;;;;;4992058;28;20422;-75
2022/03/04 07:19:44;;;;;;;36.17;16.35;;;-0.20;79.00;;;;;;4974576;28;20203;-77
2022/03/04 07:22:09;;;;;;;32.70;16.00;;;-0.20;78.70;;;;;;4973559;28;20924;-75
2022/03/04 07:24:36;;;;;;;36.27;15.87;;;-0.10;78.40;;;;;;4973651;28;20457;-76
2022/03/04 07:27:02;;;;;;;34.88;15.70;;;-0.10;78.00;;;;;;4973401;28;20457;-76
2022/03/04 07:29:28;;;;;;;35.45;16.30;;;0.00;77.70;;;;;;4973712;28;20207;-76
2022/03/04 07:31:55;;;;;;;35.30;18.37;;;0.10;77.30;;;;;;4983528;28;20209;-77
2022/03/04 07:34:21;;;;;;;35.75;16.10;;;0.10;76.70;;;;;;4976552;28;20203;-75
2022/03/04 07:36:47;;;;;;;37.00;17.17;;;0.20;76.50;;;;;;4985403;28;20533;-77
2022/03/04 07:39:13;;;;;;;39.93;17.43;;;0.20;76.50;;;;;;4976663;28;20334;-76
2022/03/04 07:41:39;;;;;;;28.37;14.47;;;0.30;76.80;;;;;;4974134;28;20422;-75
2022/03/04 07:44:06;;;;;;;34.75;17.65;;;0.30;76.70;;;;;;4972964;28;20534;-79
2022/03/04 07:46:32;;;;;;;38.83;16.23;;;0.50;76.20;;;;;;4974076;28;20191;-78
2022/03/04 07:48:58;;;;;;;38.45;17.33;;;0.50;75.40;;;;;;4973748;28;20326;-77
2022/03/04 07:51:24;;;;;;;38.10;16.00;;;0.60;75.10;;;;;;4979958;28;20274;-78
2022/03/04 07:53:50;;;;;;;46.50;19.02;;;0.70;75.10;;;;;;4976584;28;20183;-78
2022/03/04 07:56:16;;;;;;;33.97;16.87;;;0.70;74.80;;;;;;4980446;28;20270;-77
2022/03/04 07:58:42;;;;;;;41.00;19.57;;;0.70;74.80;;;;;;4986910;28;20604;-76
2022/03/04 08:01:08;;;;;;;37.33;17.30;;;0.70;74.60;;;;;;4982533;28;20186;-77
2022/03/04 08:03:35;;;;;;;35.72;16.65;;;0.70;74.20;;;;;;4992352;28;20237;-77
2022/03/04 08:06:03;;;;;;;42.88;20.58;;;0.80;73.60;;;;;;4983657;28;20191;-77
2022/03/04 08:08:29;;;;;;;43.08;18.00;;;0.90;72.70;;;;;;4982396;28;20203;-78
2022/03/04 08:10:55;;;;;;;40.13;18.20;;;0.90;71.80;;;;;;4982768;28;20275;-76
2022/03/04 08:13:21;;;;;;;37.77;17.13;;;1.00;70.80;;;;;;4985515;28;20186;-77
2022/03/04 08:15:47;;;;;;;43.55;18.63;;;1.00;70.80;;;;;;4992600;28;20183;-79
2022/03/04 08:18:13;;;;;;;35.25;17.73;;;1.10;70.70;;;;;;4993426;28;20234;-79
2022/03/04 08:20:39;;;;;;;41.97;18.53;;;1.10;71.00;;;;;;4985576;28;20193;-77
2022/03/04 08:23:05;;;;;;;39.28;18.77;;;1.10;70.70;;;;;;4981633;28;20203;-78
2022/03/04 08:25:31;;;;;;;41.90;17.40;;;1.10;70.70;;;;;;4975495;28;20266;-79
2022/03/04 08:27:57;;;;;;;41.65;18.77;;;1.20;70.50;;;;;;4987779;28;20199;-77
2022/03/04 08:30:23;;;;;;;35.67;16.90;;;1.30;70.20;;;;;;4980994;28;20285;-78
2022/03/04 08:32:49;;;;;;;37.55;17.48;;;1.50;69.80;;;;;;4972923;28;20195;-77
2022/03/04 08:35:15;;;;;;;44.08;18.23;;;1.60;68.90;;;;;;4976568;28;20638;-78
2022/03/04 08:37:41;;;;;;;46.33;18.50;;;1.70;68.50;;;;;;4982047;28;20713;-77
2022/03/04 08:40:09;;;;;;;34.33;18.37;;;1.80;67.90;;;;;;4982919;28;20222;-78
2022/03/04 08:42:36;;;;;;;33.03;17.05;;;1.90;68.20;;;;;;4985647;28;20231;-79
2022/03/04 08:45:03;;;;;;;37.28;19.08;;;2.00;68.00;;;;;;4999487;28;20197;-77
2022/03/04 08:47:28;;;;;;;38.85;17.98;;;2.00;67.60;;;;;;4980933;28;20175;-77
2022/03/04 08:49:54;;;;;;;41.20;18.30;;;2.10;67.60;;;;;;4981707;28;20560;-77
2022/03/04 08:52:20;;;;;;;42.50;18.50;;;2.20;67.60;;;;;;4983882;28;20681;-77
2022/03/04 08:54:46;;;;;;;48.10;20.17;;;2.20;67.50;;;;;;4983490;28;21012;-78
2022/03/04 08:57:12;;;;;;;41.93;19.33;;;2.30;66.70;;;;;;4985954;28;20442;-78
2022/03/04 08:59:38;;;;;;;53.57;19.67;;;2.30;66.00;;;;;;4992878;28;20306;-77
2022/03/04 09:02:05;;;;;;;40.00;18.67;;;2.40;65.80;;;;;;4984700;28;20477;-78
2022/03/04 09:04:30;;;;;;;41.47;20.20;;;2.50;65.70;;;;;;4984750;28;20518;-78
2022/03/04 09:06:56;;;;;;;44.93;19.57;;;2.50;65.70;;;;;;4975873;28;20513;-78
2022/03/04 09:09:22;;;;;;;44.57;19.20;;;2.60;65.10;;;;;;4977633;28;20681;-78
2022/03/04 09:11:47;;;;;;;37.40;19.10;;;2.70;64.70;;;;;;4978749;28;20207;-78
2022/03/04 09:14:15;;;;;;;39.50;19.93;;;2.90;63.70;;;;;;4979761;28;20186;-79
2022/03/04 09:16:42;;;;;;;36.87;19.17;;;3.00;62.90;;;;;;4987612;28;20171;-79
2022/03/04 09:19:07;;;;;;;42.27;19.20;;;3.10;63.40;;;;;;4973278;28;20441;-77
2022/03/04 09:21:33;;;;;;;43.97;19.27;;;3.30;62.30;;;;;;4978022;28;20432;-78
2022/03/04 09:23:59;;;;;;;33.00;18.53;;;3.40;61.60;;;;;;4977139;28;20454;-78
2022/03/04 09:26:27;;;;;;;40.50;19.40;;;3.50;61.20;;;;;;4973561;28;20183;-78
2022/03/04 09:28:53;;;;;;;38.10;18.30;;;3.60;59.60;;;;;;4975301;28;20551;-78
2022/03/04 09:31:18;;;;;;;41.63;19.67;;;3.70;59.20;;;;;;4976984;28;20450;-79
2022/03/04 09:33:44;;;;;;;43.90;20.27;;;3.80;58.90;;;;;;4977167;28;20506;-77
2022/03/04 09:36:14;;;;;;;40.27;18.97;;;3.90;58.50;;;;;;4967846;28;20252;-78
2022/03/04 09:38:41;;;;;;;34.97;17.30;;;3.90;58.50;;;;;;4976812;28;20214;-79
2022/03/04 09:41:07;;;;;;;45.53;19.53;;;4.00;58.70;;;;;;4975829;28;20422;-76
2022/03/04 09:43:34;;;;;;;38.17;18.80;;;4.10;58.80;;;;;;4976605;28;20422;-77
2022/03/04 09:46:00;;;;;;;39.93;18.97;;;4.20;58.40;;;;;;4974805;28;20426;-77
2022/03/04 09:48:26;;;;;;;49.27;20.20;;;4.30;58.20;;;;;;4980277;28;20453;-77
2022/03/04 09:50:53;;;;;;;39.37;19.30;;;4.40;58.40;;;;;;4976791;28;20470;-78
2022/03/04 09:53:19;;;;;;;48.17;19.53;;;4.50;57.40;;;;;;4974342;28;20423;-78
2022/03/04 09:55:45;;;;;;;43.57;19.47;;;4.50;56.90;;;;;;4986301;28;20423;-78
2022/03/04 09:58:19;;;;;;;45.33;20.13;;;4.40;56.20;;;;;;4979587;28;20831;-76
2022/03/04 10:00:46;;;;;;;39.63;19.97;;;4.40;56.50;;;;;;4987821;28;20410;-78
2022/03/04 10:03:20;;;;;;;43.93;20.47;;;4.50;56.90;;;;;;4975376;28;20423;-77
2022/03/04 10:05:54;;;;;;;37.40;20.30;;;4.60;56.60;;;;;;4992096;28;20433;-77
2022/03/04 10:08:21;;;;;;;43.67;20.20;;;4.60;56.20;;;;;;4987837;28;20537;-76
2022/03/04 10:10:55;;;;;;;42.03;19.43;;;4.70;55.70;;;;;;4975096;28;20628;-75
2022/03/04 10:13:39;;;;;;;41.83;20.90;;;4.80;54.90;;;;;;4983597;28;20430;-78
2022/03/04 10:16:05;;;;;;;44.70;20.50;;;5.00;54.90;;;;;;4998317;28;20422;-78
2022/03/04 10:18:31;;;;;;;42.90;19.37;;;5.10;54.40;;;;;;4980639;28;20430;-77
2022/03/04 10:20:56;;;;;;;44.30;20.70;;;5.20;54.10;;;;;;4976170;28;20422;-76
2022/03/04 10:23:24;;;;;;;41.37;19.77;;;5.30;53.40;;;;;;4976178;28;20194;-77
2022/03/04 10:25:56;;;;;;;47.43;20.90;;;5.40;53.30;;;;;;4984615;28;20183;-77
2022/03/04 10:28:28;;;;;;;44.97;21.80;;;5.30;53.40;;;;;;4989338;28;20447;-76
2022/03/04 10:30:56;;;;;;;41.47;19.60;;;5.40;53.60;;;;;;4982636;28;20470;-77
2022/03/04 10:33:24;;;;;;;43.90;20.93;;;5.60;53.00;;;;;;4987939;28;20433;-76
2022/03/04 10:36:09;;;;;;;47.70;21.30;;;5.60;52.20;;;;;;4981183;28;20427;-76
2022/03/04 10:38:36;;;;;;;41.33;20.33;;;5.60;51.70;;;;;;4976429;28;20436;-77
2022/03/04 10:41:24;;;;;;;45.23;20.53;;;5.60;51.70;;;;;;4979362;28;20427;-77
2022/03/04 10:43:51;;;;;;;42.07;21.07;;;5.70;51.70;;;;;;4976556;28;20988;-77
2022/03/04 10:46:17;;;;;;;42.90;19.70;;;5.80;50.50;;;;;;4976325;28;20434;-75
2022/03/04 10:48:53;;;;;;;40.90;20.37;;;5.90;50.50;;;;;;4974814;28;20435;-77
2022/03/04 10:51:34;;;;;;;45.83;20.10;;;6.10;49.80;;;;;;4975662;28;20484;-77
2022/03/04 10:54:10;;;;;;;44.77;19.20;;;6.50;49.30;;;;;;4985023;28;20932;-78
2022/03/04 10:56:55;;;;;;;34.47;19.67;;;6.90;47.80;;;;;;4974428;28;20430;-77
2022/03/04 10:59:23;;;;;;;42.80;19.43;;;7.20;46.30;;;;;;4975387;28;20511;-75
2022/03/04 11:01:50;;;;;;;39.47;19.10;;;7.50;44.60;;;;;;4981022;28;20509;-77
2022/03/04 11:04:19;;;;;;;38.73;19.67;;;7.60;43.50;;;;;;4977039;28;20425;-79
2022/03/04 11:06:47;;;;;;;37.23;18.17;;;7.70;43.90;;;;;;4985897;28;20425;-75
2022/03/04 11:09:23;;;;;;;40.67;19.90;;;7.80;43.10;;;;;;4983792;28;20443;-76
2022/03/04 11:11:52;;;;;;;36.80;19.17;;;7.80;43.40;;;;;;4989174;28;20596;-78
2022/03/04 11:14:20;;;;;;;37.07;18.10;;;8.00;41.90;;;;;;4978788;28;20406;-77
2022/03/04 11:16:48;;;;;;;34.87;19.70;;;8.20;42.60;;;;;;4984366;28;20425;-76
2022/03/04 11:19:16;;;;;;;38.03;19.00;;;8.60;42.20;;;;;;4981855;28;20461;-78
2022/03/04 11:21:41;;;;;;;46.30;22.20;;;9.10;41.50;;;;;;4975230;28;20423;-78
2022/03/04 11:24:07;;;;;;;38.07;20.53;;;9.50;40.00;;;;;;4976961;28;20731;-75
2022/03/04 11:26:35;;;;;;;40.80;20.57;;;9.60;39.20;;;;;;4978452;28;20183;-77
2022/03/04 11:29:03;;;;;;;45.07;20.80;;;9.70;39.10;;;;;;4974472;28;20438;-77
2022/03/04 11:31:29;;;;;;;40.57;20.23;;;10.00;39.00;;;;;;4976636;28;20523;-79
2022/03/04 11:33:58;;;;;;;48.33;20.60;;;9.80;38.20;;;;;;4993048;28;20425;-77
2022/03/04 11:36:34;;;;;;;35.73;18.57;;;9.50;38.40;;;;;;4980660;28;20462;-77
2022/03/04 11:39:01;;;;;;;39.70;18.87;;;9.30;37.80;;;;;;4982394;28;20480;-77
2022/03/04 11:41:28;;;;;;;42.33;19.73;;;9.30;38.30;;;;;;4980376;28;20420;-76
2022/03/04 11:43:57;;;;;;;38.83;19.43;;;8.90;39.50;;;;;;4977675;28;20430;-78
2022/03/04 11:46:23;;;;;;;35.63;18.53;;;8.80;39.60;;;;;;4977797;28;20956;-75
2022/03/04 11:49:28;;;;;;;31.77;18.27;;;8.50;40.40;;;;;;4982120;28;20484;-77
2022/03/04 11:52:09;;;;;;;41.17;18.40;;;8.50;40.70;;;;;;4978392;28;20462;-76
2022/03/04 11:54:51;;;;;;;38.67;18.03;;;8.30;40.70;;;;;;4973732;28;20785;-78
2022/03/04 11:57:18;;;;;;;30.77;16.87;;;8.30;40.80;;;;;;4968847;28;20418;-77
2022/03/04 11:59:49;;;;;;;41.93;18.60;;;8.50;40.30;;;;;;4976455;28;20478;-77
2022/03/04 12:02:43;;;;;;;33.30;16.77;;;8.90;39.10;;;;;;4977253;28;20430;-78
2022/03/04 12:05:15;;;;;;;35.70;17.13;;;8.90;37.80;;;;;;4967977;28;20427;-78
2022/03/04 12:07:45;;;;;;;40.13;18.87;;;8.90;37.90;;;;;;4983552;28;20430;-77
2022/03/04 12:10:13;;;;;;;34.43;18.00;;;8.90;37.50;;;;;;4971504;28;20426;-77
2022/03/04 12:12:58;;;;;;;38.90;17.80;;;9.40;38.00;;;;;;4987034;28;20418;-79
2022/03/04 12:15:23;;;;;;;37.27;17.60;;;10.00;37.00;;;;;;4981514;28;20415;-79
2022/03/04 12:17:59;;;;;;;31.80;17.37;;;10.20;35.10;;;;;;4985913;28;20469;-77
2022/03/04 12:20:28;;;;;;;30.60;16.80;;;9.90;34.40;;;;;;4974600;28;20195;-78
2022/03/04 12:23:14;;;;;;;30.13;15.70;;;9.90;34.90;;;;;;4983808;28;20431;-78
2022/03/04 12:25:55;;;;;;;33.10;17.07;;;10.30;33.90;;;;;;4988310;28;20438;-79
2022/03/04 12:28:21;;;;;;;33.30;15.93;;;10.50;33.60;;;;;;4979817;28;20450;-76
2022/03/04 12:31:14;;;;;;;31.90;15.93;;;10.70;33.60;;;;;;4979044;28;20602;-77
2022/03/04 12:33:44;;;;;;;29.70;14.93;;;10.70;31.30;;;;;;4978855;28;20445;-78
2022/03/04 12:36:13;;;;;;;34.30;15.50;;;10.60;31.30;;;;;;4982373;28;20479;-78
2022/03/04 12:38:41;;;;;;;26.27;14.60;;;10.70;31.10;;;;;;4992841;28;20495;-74